Text Box: All records at near 07:00 local time
Kleivo 1 weather for Nov 2010
Month no. 48
Obs.
Da.
Temp. Dew Point Precip. Wind
Speed
Wind gusts Cloud cover Press. Humidity Wind dir. Sunny OPT
01.11.2010 3,9 5,9 2,5 0,0 0,0 3 991,6 89,0 337,5 1 65,0 %
02.11.2010 7,1 7,1 2,0 5,1 9,7 0 975,2 88,0 180,0   57,5 %
03.11.2010 5,8 7,1 8,7 0,4 4,8 1 967,9 88,0 202,5   57,5 %
04.11.2010 2,9 3,1 5,1 0,0 3,2 1 981,7 88,0 337,5   57,5 %
05.11.2010 4,8 4,1 2,5 0,2 9,7 2 984,7 89,0 135,0   62,5 %
06.11.2010 0,7 0,6 6,6 0,0 12,9 10 992,0 89,0 0,0 1 75,0 %
07.11.2010 -0,4 1,2 1,5 0,0 8,0 7 989,8 90,0 0,0 1 70,0 %
08.11.2010 2,3 -2,3 5,6 2,8 0,0 10 977,6 64,0 135,0 1 77,5 %
09.11.2010 -2,4 -8,5 0,0 0,6 0,0 10 980,6 63,0 22,5 1 77,5 %
10.11.2010 -3,1 -5,3 0,0 0,5 4,8 2 975,1 72,0 0,0   55,0 %
11.11.2010 2,3 -2,9 0,0 2,1 27,4 2 974,9 78,0 135,0 1 60,0 %
12.11.2010 5,8 1,9 0,0 4,1 3,2 0 948,2 60,0 112,5   57,5 %
13.11.2010 3,3 3,2 2,0 1,3 3,2 0 956,2 88,0 135,0   57,5 %
14.11.2010 3,9 2,9 5,1 1,1 1,6 2 971,9 90,0 135,0 1 60,0 %
15.11.2010 1,1 1,6 2,5 0,0 3,2 2 983,4 90,0 67,5 1 60,0 %
16.11.2010 3,9 2,3 2,5 1,6 0,0 2 1001,9 88,0 157,5 1 62,5 %
17.11.2010 4,6 -0,1 1,5 6,6 4,8 1 1006,3 60,0 112,5 1 57,5 %
18.11.2010 1,7 -4,4 0,0 0,0 3,2 0 1018,5 71,0 0,0 1 55,0 %
19.11.2010 -0,5 -3,7 0,0 1,6 4,8 0 1019,2 84,0 0,0   52,5 %
20.11.2010 -1,6 -5,1 0,0 4,0 1,6 0 1004,6 66,0 337,5   50,0 %
21.11.2010 1,5 0,9 0,0 3,7 4,8 0 1002,9 73,0 0,0   52,5 %
22.11.2010 1,5 2,4 0,0 3,7 16,1 0 1002,9 73,0 0,0   52,5 %
23.11.2010 1,3 -3,6 0,0 8,0 3,2 0 991,9 65,0   1 50,0 %
24.11.2010 -5,6 -9,1 0,0 1,6 4,8 1 991,5 66,0   1 52,5 %
25.11.2010 -6,9 -8,9 0,0 5,6 4,8 0 994,5 75,0 225,0 1 47,5 %
26.11.2010 -5,6 -11,7 0,0 1,9 8,0 0 993,8 61,0 135,0 1 50,0 %
27.11.2010 -5,4 -11,8 0,0 3,7 0,0 0 996,8 54,0 90,0   47,5 %
28.11.2010 -5,6 -12,6 0,0 4,0 14,5 0 991,4 66,0 22,5 1 47,5 %
29.11.2010 -3,1 -10,3 0,0 4,8 1,6 10 1009,1 54,0 135,0 1 72,5 %
30.11.2010 -5,6 -12,6 0,0 9,7 11,3 10 1015,2 58,0 135,0 1 70,0 %
                       
Avrg/Sum 0,4 -2,3 48,1 2,6 5,8 2,5 989,7 74,7 117,3 18 59,0 %